• Join FlightAware (Why Join?)
  • Login
  • US Flag 
06:23PM EST


 

Airport Tracker/Info


-or-


 

Live Flight TrackerFlight Track Log ✈ DKT81 ✈ 30-Apr-2012 ✈ KISN - KFSD

Flight Track Log - Related Links

Times and Time Zones

All times are in EDT time to prevent confusion due to time zone crossing. See the DKT81 flight status page for this flight to view local times or setup timezone preferences in your user account.

Time Position Orientation Groundspeed Altitude Reporting Facility
EDT Latitude Longitude Course Direction KTS MPH feet Rate Location/Type
08:34AM 48.1200 -103.5761 128° Southeast 188 216 6,900  Level Salt Lake Center
08:35AM 48.0861 -103.5114 119° Southeast 195 224 8,900 1,920 Climbing Salt Lake Center
08:36AM 48.0583 -103.4367 125° Southeast 201 231 10,800 1,860 Climbing Salt Lake Center
08:37AM 48.0244 -103.3633 126° Southeast 209 241 12,700 1,740 Climbing Salt Lake Center
08:38AM 47.9903 -103.2925 132° Southeast 211 243 14,400 1,620 Climbing Salt Lake Center
08:39AM 47.9508 -103.2272 133° Southeast 211 243 16,000 1,380 Climbing Salt Lake Center
08:40AM 47.9103 -103.1625 131° Southeast 211 243 17,200 1,320 Climbing Salt Lake Center
08:41AM 47.8686 -103.0906 129° Southeast 218 251 18,700 900 Climbing Salt Lake Center
08:42AM 47.8264 -103.0125 132° Southeast 230 265 19,100 180 Climbing Salt Lake Center
08:43AM 47.7742 -102.9264 127° Southeast 260 299 19,100 -60 Level Salt Lake Center
08:44AM 47.7239 -102.8272 133° Southeast 286 329 19,000 -120 Descending Salt Lake Center
08:45AM 47.6672 -102.7361 124° Southeast 297 342 18,900 -120 Descending Salt Lake Center
08:47AM 47.6208 -102.6328 135° Southeast 300 345 18,800 60 Descending Salt Lake Center
08:48AM 47.5517 -102.5289 144° Southeast 296 341 19,100 120 Climbing Salt Lake Center
08:49AM 47.4869 -102.4594 140° Southeast 291 335 19,100 -60 Level Salt Lake Center
08:50AM 47.4247 -102.3814 135° Southeast 294 338 19,000 -60 Descending Salt Lake Center
08:51AM 47.3672 -102.2967 137° Southeast 299 344 19,000  Level Minneapolis Center
08:52AM 47.3069 -102.2128 129° Southeast 299 344 19,000  Level Minneapolis Center
08:53AM 47.2556 -102.1186 133° Southeast 304 350 19,000  Level Minneapolis Center
08:54AM 47.1978 -102.0264 119° Southeast 304 350 19,000  Level Minneapolis Center
08:55AM 47.1558 -101.9156 132° Southeast 310 357 19,000  Level Minneapolis Center
08:56AM 47.0961 -101.8172 134° Southeast 303 349 19,000  Level Minneapolis Center
08:57AM 47.0397 -101.7319 145° Southeast 298 343 19,000 -60 Level Minneapolis Center
08:58AM 46.9697 -101.6603 135° Southeast 298 343 18,900  Descending Minneapolis Center
08:59AM 46.9128 -101.5783 121° Southeast 298 343 19,100 60 Climbing Minneapolis Center
09:00AM 46.8681 -101.4711 136° Southeast 298 343 19,100  Level Minneapolis Center
09:01AM 46.8092 -101.3894 130° Southeast 298 343 19,200  Climbing Minneapolis Center
09:02AM 46.7531 -101.2931 139° Southeast 298 343 19,200  Level Minneapolis Center
09:03AM 46.6917 -101.2142 139° Southeast 304 350 19,200 -60 Level Minneapolis Center
09:04AM 46.6264 -101.1322 129° Southeast 304 350 19,100 -120 Descending Minneapolis Center
09:05AM 46.5722 -101.0367 130° Southeast 309 356 19,000 -120 Descending Minneapolis Center
09:06AM 46.5161 -100.9381 137° Southeast 309 356 18,900 -60 Descending Minneapolis Center
09:07AM 46.4567 -100.8575 139° Southeast 309 356 18,900 -60 Level Minneapolis Center
09:08AM 46.3928 -100.7764 120° Southeast 304 350 18,800 -60 Descending Minneapolis Center
09:09AM 46.3517 -100.6714 125° Southeast 298 343 18,800  Level Minneapolis Center
09:10AM 46.3036 -100.5717 133° Southeast 298 343 18,800 60 Level Minneapolis Center
09:11AM 46.2483 -100.4861 143° Southeast 298 343 19,000 60 Climbing Minneapolis Center
09:12AM 46.1858 -100.4181 132° Southeast 293 337 19,000  Level Minneapolis Center
09:13AM 46.1306 -100.3300 138° Southeast 293 337 19,100  Climbing Minneapolis Center
09:14AM 46.0686 -100.2503 142° Southeast 298 343 19,100  Level Minneapolis Center
09:15AM 46.0061 -100.1797 131° Southeast 298 343 19,100 -60 Level Minneapolis Center
09:16AM 45.9508 -100.0892 140° Southeast 293 337 19,000 -60 Descending Minneapolis Center
09:17AM 45.8906 -100.0161 131° Southeast 293 337 19,000  Level Minneapolis Center
09:18AM 45.8353 -99.9261 138° Southeast 293 337 19,100  Climbing Minneapolis Center
09:19AM 45.7750 -99.8475 143° Southeast 298 343 19,100  Level Minneapolis Center
09:20AM 45.7100 -99.7775 138° Southeast 298 343 19,100  Level Minneapolis Center
09:21AM 45.6556 -99.7086 138° Southeast 293 337 19,100  Level Minneapolis Center
09:22AM 45.5931 -99.6275 131° Southeast 293 337 19,100 -120 Level Minneapolis Center
09:23AM 45.5378 -99.5353 130° Southeast 299 344 18,900 -120 Descending Minneapolis Center
09:24AM 45.4861 -99.4464 130° Southeast 299 344 18,900  Level Minneapolis Center
09:25AM 45.4325 -99.3550 130° Southeast 299 344 18,900  Level Minneapolis Center
09:26AM 45.3769 -99.2603 134° Southeast 299 344 18,900  Level Minneapolis Center
09:27AM 45.3206 -99.1775 136° Southeast 299 344 19,000 60 Climbing Minneapolis Center
09:28AM 45.2603 -99.0944 121° Southeast 299 344 19,100  Climbing Minneapolis Center
09:29AM 45.2172 -98.9928 134° Southeast 299 344 19,100  Level Minneapolis Center
09:30AM 45.1589 -98.9075 134° Southeast 299 344 19,100 -60 Level Minneapolis Center
09:31AM 45.1006 -98.8225 143° Southeast 299 344 19,000 -120 Descending Minneapolis Center
09:32AM 45.0350 -98.7514 129° Southeast 299 344 18,900  Descending Minneapolis Center
09:33AM 44.9828 -98.6614 138° Southeast 299 344 19,000  Climbing Minneapolis Center
09:34AM 44.9197 -98.5822 134° Southeast 299 344 19,000  Level Minneapolis Center
09:35AM 44.8611 -98.4978 135° Southeast 304 350 19,000  Level Minneapolis Center
09:36AM 44.8003 -98.4133 123° Southeast 304 350 19,000  Level Minneapolis Center
09:37AM 44.7547 -98.3128 133° Southeast 304 350 19,000  Level Minneapolis Center
09:38AM 44.6900 -98.2167 132° Southeast 309 356 19,000  Level Minneapolis Center
09:39AM 44.6353 -98.1303 132° Southeast 304 350 19,000  Level Minneapolis Center
09:40AM 44.5803 -98.0442 132° Southeast 297 342 19,000  Level Minneapolis Center
09:41AM 44.5256 -97.9583 130° Southeast 297 342 19,100 60 Climbing Minneapolis Center
09:42AM 44.4728 -97.8697 137° Southeast 297 342 19,200  Climbing Minneapolis Center
09:43AM 44.4133 -97.7925 135° Southeast 297 342 19,200  Level Minneapolis Center
09:44AM 44.3539 -97.7094 134° Southeast 291 335 19,200 -180 Level Minneapolis Center
09:45AM 44.3025 -97.6361 140° Southeast 291 335 18,900 -600 Descending Minneapolis Center
09:46AM 44.2386 -97.5619 133° Southeast 296 341 18,100 -840 Descending Minneapolis Center
09:47AM 44.1772 -97.4706 134° Southeast 312 359 17,300 -1,080 Descending Minneapolis Center
09:48AM 44.1139 -97.3794 135° Southeast 317 365 16,000 -1,200 Descending Minneapolis Center
09:49AM 44.0483 -97.2883 135° Southeast 323 372 14,900 -1,620 Descending Minneapolis Center
09:50AM 43.9844 -97.2003 125° Southeast 323 372 12,800 -2,280 Descending Minneapolis Center
09:51AM 43.9317 -97.0961 121° Southeast 318 366 10,400 -2,280 Descending Minneapolis Center
09:52AM 43.8814 -96.9806 125° Southeast 323 372 8,300 -1,980 Descending Minneapolis Center
09:53AM 43.8322 -96.8825 119° Southeast 318 366 6,500 -1,800 Descending Minneapolis Center
09:54AM 43.7936 -96.7856 121° Southeast 303 349 4,700 -1,620 Descending Minneapolis Center
09:55AM 43.7544 -96.6969 134° Southeast 288 331 3,300 -840 Descending Minneapolis Center
09:56AM 43.7106 -96.6342 209° Southwest 258 297 3,100 -120 Descending Minneapolis Center
09:57AM 43.6614 -96.6717 213° Southwest 169 194 3,100 -540 Level Minneapolis Center
09:58AM 43.6253 -96.7042 204° Southwest 162 186 2,100 -660 Descending Minneapolis Center
09:59AM 43.5911 -96.7253 204° Southwest 151 174 1,800 -300 Descending Minneapolis Center